createdAt,value
2019-05-02T00:02:12.331Z,14.73
2019-05-02T00:06:16.842Z,14.67
2019-05-02T00:10:24.979Z,14.61
2019-05-02T00:14:27.275Z,14.58
2019-05-02T00:18:31.867Z,14.55
2019-05-02T00:22:37.536Z,14.57
2019-05-02T00:26:41.850Z,14.59
2019-05-02T00:30:46.545Z,14.58
2019-05-02T00:34:50.827Z,14.58
2019-05-02T00:38:55.106Z,14.57
2019-05-02T00:42:59.641Z,14.58
2019-05-02T00:47:15.200Z,14.54
2019-05-02T00:51:22.045Z,14.51
2019-05-02T00:55:29.003Z,14.49
2019-05-02T00:59:31.437Z,14.51
2019-05-02T01:03:37.484Z,14.51
2019-05-02T01:07:41.747Z,14.54
2019-05-02T01:11:45.997Z,14.58
2019-05-02T01:15:50.683Z,14.57
2019-05-02T01:19:55.027Z,14.56
2019-05-02T01:24:03.130Z,14.57
2019-05-02T01:28:17.527Z,14.57
2019-05-02T01:32:30.182Z,14.57
2019-05-02T01:36:41.049Z,14.55
2019-05-02T01:40:48.042Z,14.54
2019-05-02T01:44:53.198Z,14.50
2019-05-02T01:48:57.475Z,14.41
2019-05-02T01:53:01.763Z,14.37
2019-05-02T01:57:08.731Z,14.35
2019-05-02T02:01:16.237Z,14.37
2019-05-02T02:05:18.129Z,14.38
2019-05-02T02:09:22.448Z,14.39
2019-05-02T02:13:31.333Z,14.40
2019-05-02T02:17:32.722Z,14.43
2019-05-02T02:21:43.921Z,14.42
2019-05-02T02:25:52.299Z,14.44
2019-05-02T02:29:56.534Z,14.44
2019-05-02T02:34:01.165Z,14.47
2019-05-02T02:38:05.598Z,14.47
2019-05-02T02:42:10.399Z,14.48
2019-05-02T02:46:23.550Z,14.47
2019-05-02T02:50:27.844Z,14.46
2019-05-02T02:54:36.780Z,14.44
2019-05-02T02:58:45.787Z,14.42
2019-05-02T03:02:48.533Z,14.36
2019-05-02T03:06:50.223Z,14.31
2019-05-02T03:10:54.518Z,14.30
2019-05-02T03:14:59.911Z,14.28
2019-05-02T03:19:04.475Z,14.25
2019-05-02T03:23:15.295Z,14.23
2019-05-02T03:27:16.339Z,14.19
2019-05-02T03:31:25.173Z,14.15
2019-05-02T03:35:41.257Z,14.10
2019-05-02T03:39:32.634Z,14.05
2019-05-02T03:43:37.332Z,13.99
2019-05-02T03:47:43.764Z,13.98
2019-05-02T03:51:47.999Z,13.95
2019-05-02T03:55:52.821Z,13.93
2019-05-02T03:59:57.094Z,13.90
2019-05-02T04:04:01.339Z,13.87
2019-05-02T04:08:05.956Z,13.88
2019-05-02T04:12:17.750Z,13.90
2019-05-02T04:16:18.231Z,13.91
2019-05-02T04:20:23.417Z,13.93
2019-05-02T04:24:27.893Z,13.96
2019-05-02T04:28:32.409Z,13.97
2019-05-02T04:32:37.164Z,13.98
2019-05-02T04:36:45.742Z,14.03
2019-05-02T04:40:49.534Z,14.09
2019-05-02T04:45:16.255Z,14.12
2019-05-02T04:48:59.455Z,14.16
2019-05-02T04:53:04.023Z,14.21
2019-05-02T04:57:08.716Z,14.25
2019-05-02T05:01:13.135Z,14.32
2019-05-02T05:05:26.201Z,14.37
2019-05-02T05:09:23.768Z,14.45
2019-05-02T05:13:29.081Z,14.54
2019-05-02T05:17:34.227Z,14.62
2019-05-02T05:21:38.617Z,14.68
2019-05-02T05:25:50.634Z,14.79
2019-05-02T05:29:59.539Z,14.87
2019-05-02T05:34:01.039Z,14.96
2019-05-02T05:38:07.630Z,15.08
2019-05-02T05:42:12.052Z,15.21
2019-05-02T05:46:17.864Z,15.34
2019-05-02T05:50:22.379Z,15.50
2019-05-02T05:54:28.274Z,15.65
2019-05-02T05:58:32.879Z,15.82
2019-05-02T06:02:50.895Z,15.97
2019-05-02T06:06:43.240Z,16.12
2019-05-02T06:10:47.465Z,16.29
2019-05-02T06:14:56.248Z,16.44
2019-05-02T06:18:58.153Z,16.60
2019-05-02T06:23:02.422Z,16.75
2019-05-02T06:27:06.715Z,16.85
2019-05-02T06:31:11.007Z,16.97
2019-05-02T06:35:17.211Z,17.10
2019-05-02T06:39:22.024Z,17.26
2019-05-02T06:43:26.358Z,17.43
2019-05-02T06:47:30.613Z,17.56
2019-05-02T06:51:34.845Z,17.67
2019-05-02T06:55:39.212Z,17.82
2019-05-02T06:59:43.566Z,17.95
2019-05-02T07:03:48.413Z,18.06
2019-05-02T07:07:52.954Z,18.25
2019-05-02T07:12:01.216Z,18.39
2019-05-02T07:16:38.621Z,18.49
2019-05-02T07:20:40.671Z,18.55
2019-05-02T07:24:43.621Z,18.59
2019-05-02T07:28:48.572Z,18.65
2019-05-02T07:32:56.333Z,18.84
2019-05-02T07:36:59.215Z,18.97
2019-05-02T07:41:05.745Z,19.12
2019-05-02T07:45:10.795Z,19.22
2019-05-02T07:49:15.094Z,19.36
2019-05-02T07:53:19.520Z,19.46
2019-05-02T07:57:25.216Z,19.56
2019-05-02T08:01:30.197Z,19.60
2019-05-02T08:05:35.125Z,19.65
2019-05-02T08:09:43.950Z,19.81
2019-05-02T08:13:49.495Z,19.89
2019-05-02T08:17:53.791Z,19.92
2019-05-02T08:21:58.199Z,19.99
2019-05-02T08:26:02.675Z,20.10
2019-05-02T08:30:11.454Z,20.22
2019-05-02T08:34:17.807Z,20.31
2019-05-02T08:38:22.009Z,20.35
2019-05-02T08:42:27.663Z,20.31
2019-05-02T08:46:32.260Z,20.42
2019-05-02T08:50:36.723Z,20.54
2019-05-02T08:54:40.942Z,20.60
2019-05-02T08:58:49.931Z,20.78
2019-05-02T09:02:51.129Z,20.88
2019-05-02T09:06:58.850Z,20.93
2019-05-02T09:11:02.259Z,21.05
2019-05-02T09:15:07.500Z,21.15
2019-05-02T09:19:13.469Z,21.24
2019-05-02T09:23:18.195Z,21.34
2019-05-02T09:27:22.598Z,21.39
2019-05-02T09:31:26.758Z,21.39
2019-05-02T09:35:32.825Z,21.44
2019-05-02T09:39:37.199Z,21.58
2019-05-02T09:43:42.609Z,21.66
2019-05-02T09:47:57.259Z,21.78
2019-05-02T09:51:59.105Z,21.83
2019-05-02T09:55:59.452Z,21.88
2019-05-02T10:00:05.400Z,21.97
2019-05-02T10:04:11.982Z,21.98
2019-05-02T10:08:16.488Z,21.88
2019-05-02T10:12:22.756Z,21.91
2019-05-02T10:16:27.514Z,21.97
2019-05-02T10:20:36.258Z,22.04
2019-05-02T10:24:37.948Z,22.04
2019-05-02T10:28:49.381Z,22.01
2019-05-02T10:32:52.940Z,22.07
2019-05-02T10:36:58.915Z,22.07
2019-05-02T10:41:02.664Z,22.08
2019-05-02T10:45:13.105Z,22.16
2019-05-02T10:49:22.603Z,22.27
2019-05-02T10:53:27.001Z,22.41
2019-05-02T10:57:32.642Z,22.54
2019-05-02T11:02:02.560Z,22.59
2019-05-02T11:06:07.807Z,22.67
2019-05-02T11:10:12.882Z,22.72
2019-05-02T11:14:26.757Z,22.72
2019-05-02T11:18:42.007Z,22.82
2019-05-02T11:22:38.716Z,22.85
2019-05-02T11:26:43.047Z,22.86
2019-05-02T11:30:47.500Z,22.93
2019-05-02T11:34:52.495Z,22.96
2019-05-02T11:39:09.174Z,22.92
2019-05-02T11:43:06.685Z,22.98
2019-05-02T11:47:09.147Z,23.01
2019-05-02T11:51:16.432Z,23.06
2019-05-02T11:55:27.339Z,23.06
2019-05-02T11:59:27.833Z,22.99
2019-05-02T12:03:52.389Z,22.94
2019-05-02T12:08:00.785Z,22.90
2019-05-02T12:12:02.733Z,22.88
2019-05-02T12:16:10.016Z,22.93
2019-05-02T12:20:14.466Z,22.93
2019-05-02T12:24:18.723Z,23.02
2019-05-02T12:28:23.051Z,22.97
2019-05-02T12:32:27.368Z,22.93
2019-05-02T12:36:33.338Z,23.05
2019-05-02T12:40:38.061Z,23.03
2019-05-02T12:44:42.679Z,22.93
2019-05-02T12:48:47.048Z,22.98
2019-05-02T12:52:52.160Z,23.05
2019-05-02T12:56:57.350Z,23.10
2019-05-02T13:01:02.811Z,23.16
2019-05-02T13:05:07.728Z,23.17
2019-05-02T13:09:13.036Z,23.20
2019-05-02T13:13:17.537Z,23.15
2019-05-02T13:17:22.618Z,23.12
2019-05-02T13:21:40.111Z,23.13
2019-05-02T13:25:38.114Z,23.21
2019-05-02T13:29:42.907Z,23.27
2019-05-02T13:34:06.433Z,23.28
2019-05-02T13:38:09.941Z,23.22
2019-05-02T13:42:14.788Z,23.17
2019-05-02T13:46:22.231Z,23.18
2019-05-02T13:50:26.475Z,23.12
2019-05-02T13:54:32.978Z,23.04
2019-05-02T13:58:37.426Z,23.04
2019-05-02T14:02:43.265Z,23.08
2019-05-02T14:06:47.504Z,23.10
2019-05-02T14:10:55.684Z,23.12
2019-05-02T14:14:59.951Z,23.09
2019-05-02T14:19:04.183Z,23.10
2019-05-02T14:23:08.495Z,23.11
2019-05-02T14:27:17.174Z,23.09
2019-05-02T14:31:19.114Z,23.08
2019-05-02T14:35:29.495Z,23.06
2019-05-02T14:39:34.550Z,23.06
2019-05-02T14:43:53.769Z,23.08
2019-05-02T14:48:08.885Z,23.09
2019-05-02T14:52:06.991Z,23.02
2019-05-02T14:56:14.907Z,23.03
2019-05-02T15:00:22.204Z,23.05
2019-05-02T15:04:26.438Z,23.05
2019-05-02T15:08:32.235Z,23.04
2019-05-02T15:12:36.662Z,23.00
2019-05-02T15:16:44.984Z,22.93
2019-05-02T15:20:47.114Z,22.89
2019-05-02T15:24:52.971Z,22.81
2019-05-02T15:28:57.862Z,22.74
2019-05-02T15:33:07.470Z,22.67
2019-05-02T15:37:12.469Z,22.58
2019-05-02T15:41:17.021Z,22.53
2019-05-02T15:45:23.783Z,22.49
2019-05-02T15:49:27.479Z,22.42
2019-05-02T15:53:44.520Z,22.34
2019-05-02T15:57:49.388Z,22.31
2019-05-02T16:01:56.725Z,22.31
2019-05-02T16:06:02.272Z,22.34
2019-05-02T16:10:08.763Z,22.34
2019-05-02T16:14:13.018Z,22.32
2019-05-02T16:18:17.411Z,22.34
2019-05-02T16:22:23.031Z,22.35
2019-05-02T16:26:27.407Z,22.30
2019-05-02T16:30:32.097Z,22.31
2019-05-02T16:34:54.210Z,22.34
2019-05-02T16:38:56.740Z,22.34
2019-05-02T16:43:02.842Z,22.33
2019-05-02T16:47:07.421Z,22.36
2019-05-02T16:51:27.692Z,22.36
2019-05-02T16:55:21.072Z,22.36
2019-05-02T16:59:24.218Z,22.35
2019-05-02T17:03:28.628Z,22.33
2019-05-02T17:07:47.246Z,22.31
2019-05-02T17:11:52.443Z,22.30
2019-05-02T17:15:56.676Z,22.31
2019-05-02T17:20:02.633Z,22.32
2019-05-02T17:24:07.731Z,22.27
2019-05-02T17:28:13.325Z,22.23
2019-05-02T17:32:17.686Z,22.16
2019-05-02T17:36:28.621Z,22.11
2019-05-02T17:40:28.070Z,22.05
2019-05-02T17:44:32.480Z,21.95
2019-05-02T17:48:39.153Z,21.86
2019-05-02T17:52:49.143Z,21.80
2019-05-02T17:56:57.478Z,21.77
2019-05-02T18:01:02.555Z,21.70
2019-05-02T18:05:07.602Z,21.63
2019-05-02T18:09:12.391Z,21.59
2019-05-02T18:13:17.419Z,21.59
2019-05-02T18:17:22.070Z,21.59
2019-05-02T18:21:28.691Z,21.58
2019-05-02T18:25:32.699Z,21.51
2019-05-02T18:29:42.651Z,21.42
2019-05-02T18:33:43.187Z,21.27
2019-05-02T18:37:47.661Z,21.18
2019-05-02T18:41:55.025Z,21.11
2019-05-02T18:46:06.005Z,21.06
2019-05-02T18:50:07.642Z,21.04
2019-05-02T18:54:12.281Z,21.01
2019-05-02T18:58:17.371Z,20.93
2019-05-02T19:02:26.468Z,20.86
2019-05-02T19:06:33.224Z,20.76
2019-05-02T19:10:37.081Z,20.67
2019-05-02T19:14:42.058Z,20.57
2019-05-02T19:18:48.917Z,20.47
2019-05-02T19:22:56.684Z,20.38
2019-05-02T19:26:58.755Z,20.27
2019-05-02T19:31:06.811Z,20.18
2019-05-02T19:35:09.336Z,20.02
2019-05-02T19:39:13.873Z,19.89
2019-05-02T19:43:18.747Z,19.80
2019-05-02T19:47:23.128Z,19.69
2019-05-02T19:51:28.219Z,19.56
2019-05-02T19:56:03.128Z,19.46
2019-05-02T20:00:16.127Z,19.37
2019-05-02T20:04:22.061Z,19.31
2019-05-02T20:08:26.413Z,19.27
2019-05-02T20:12:30.816Z,19.22
2019-05-02T20:16:52.642Z,19.15
2019-05-02T20:21:26.875Z,19.05
2019-05-02T20:25:29.770Z,18.95
2019-05-02T20:29:32.214Z,18.90
2019-05-02T20:33:36.555Z,18.81
2019-05-02T20:37:41.988Z,18.71
2019-05-02T20:41:46.333Z,18.63
2019-05-02T20:45:52.575Z,18.57
2019-05-02T20:49:56.611Z,18.51
2019-05-02T20:54:02.032Z,18.43
2019-05-02T20:58:06.626Z,18.35
2019-05-02T21:02:12.268Z,18.29
2019-05-02T21:06:40.683Z,18.20
2019-05-02T21:10:42.391Z,18.14
2019-05-02T21:14:46.945Z,18.09
2019-05-02T21:18:51.199Z,18.04
2019-05-02T21:22:55.782Z,17.97
2019-05-02T21:27:01.880Z,17.93
2019-05-02T21:31:06.030Z,17.87
2019-05-02T21:35:11.875Z,17.84
2019-05-02T21:39:16.262Z,17.81
2019-05-02T21:43:22.135Z,17.74
2019-05-02T21:47:26.434Z,17.63
2019-05-02T21:51:43.342Z,17.60
2019-05-02T21:56:12.176Z,17.59
2019-05-02T22:00:39.104Z,17.59
2019-05-02T22:04:43.552Z,17.59
2019-05-02T22:08:47.952Z,17.60
2019-05-02T22:12:52.238Z,17.53
2019-05-02T22:16:56.496Z,17.50
2019-05-02T22:21:01.704Z,17.49
2019-05-02T22:25:07.078Z,17.47
2019-05-02T22:29:12.369Z,17.48
2019-05-02T22:33:16.838Z,17.48
2019-05-02T22:37:22.902Z,17.47
2019-05-02T22:41:27.105Z,17.42
2019-05-02T22:45:32.270Z,17.40
2019-05-02T22:49:36.608Z,17.36
2019-05-02T22:53:41.709Z,17.30
2019-05-02T22:57:46.184Z,17.25
2019-05-02T23:01:52.592Z,17.18
2019-05-02T23:05:56.613Z,17.11
2019-05-02T23:10:02.172Z,17.09
2019-05-02T23:14:06.925Z,17.04
2019-05-02T23:18:12.210Z,17.04
2019-05-02T23:22:16.547Z,17.00
2019-05-02T23:26:33.448Z,17.00
2019-05-02T23:30:37.735Z,17.01
2019-05-02T23:34:41.972Z,17.05
2019-05-02T23:38:46.227Z,17.10
2019-05-02T23:42:52.327Z,17.06
2019-05-02T23:46:56.528Z,17.01
2019-05-02T23:51:02.573Z,16.99
2019-05-02T23:55:07.412Z,16.98
2019-05-02T23:59:11.925Z,16.89
